createdAt,value
2022-08-08T00:01:52.521Z,1.53
2022-08-08T00:04:49.471Z,1.37
2022-08-08T00:07:43.587Z,1.23
2022-08-08T00:10:28.498Z,1.57
2022-08-08T00:13:10.030Z,1.13
2022-08-08T00:15:58.368Z,1.57
2022-08-08T00:19:08.589Z,1.90
2022-08-08T00:21:45.151Z,1.40
2022-08-08T00:24:33.570Z,1.83
2022-08-08T00:27:06.522Z,1.47
2022-08-08T00:29:51.826Z,1.20
2022-08-08T00:32:51.786Z,1.63
2022-08-08T00:35:56.959Z,1.10
2022-08-08T00:38:56.040Z,1.50
2022-08-08T00:42:07.870Z,1.40
2022-08-08T00:45:21.097Z,1.70
2022-08-08T00:48:33.907Z,1.37
2022-08-08T00:51:59.184Z,1.60
2022-08-08T00:54:45.793Z,1.83
2022-08-08T00:58:21.227Z,1.43
2022-08-08T01:01:29.411Z,1.50
2022-08-08T01:04:34.860Z,1.60
2022-08-08T01:07:55.676Z,1.40
2022-08-08T01:11:09.745Z,1.40
2022-08-08T01:14:54.855Z,1.80
2022-08-08T01:17:51.513Z,2.13
2022-08-08T01:20:53.511Z,1.80
2022-08-08T01:24:20.609Z,1.87
2022-08-08T01:27:44.875Z,2.40
2022-08-08T01:30:55.818Z,1.87
2022-08-08T01:34:00.609Z,1.90
2022-08-08T01:37:06.799Z,1.57
2022-08-08T01:39:56.876Z,1.47
2022-08-08T01:42:50.813Z,1.70
2022-08-08T01:46:03.280Z,1.60
2022-08-08T01:49:22.876Z,1.87
2022-08-08T01:52:57.263Z,1.77
2022-08-08T01:56:28.648Z,2.00
2022-08-08T01:58:47.222Z,1.37
2022-08-08T02:02:00.307Z,1.63
2022-08-08T02:04:46.066Z,1.70
2022-08-08T02:07:41.762Z,1.33
2022-08-08T02:10:59.168Z,2.10
2022-08-08T02:13:55.584Z,1.83
2022-08-08T02:17:03.758Z,1.63
2022-08-08T02:20:09.437Z,1.93
2022-08-08T02:23:18.390Z,1.10
2022-08-08T02:26:00.743Z,1.73
2022-08-08T02:29:18.591Z,1.73
2022-08-08T02:32:09.801Z,1.60
2022-08-08T02:36:05.216Z,1.63
2022-08-08T02:39:40.555Z,2.20
2022-08-08T02:43:00.709Z,1.50
2022-08-08T02:46:00.731Z,2.40
2022-08-08T02:49:27.355Z,1.20
2022-08-08T02:52:34.797Z,1.90
2022-08-08T02:56:03.274Z,1.70
2022-08-08T02:59:57.270Z,1.63
2022-08-08T03:02:52.493Z,1.40
2022-08-08T03:05:59.854Z,1.40
2022-08-08T03:09:28.743Z,1.50
2022-08-08T03:13:01.558Z,1.57
2022-08-08T03:15:56.773Z,1.60
2022-08-08T03:18:43.862Z,1.97
2022-08-08T03:21:14.518Z,1.80
2022-08-08T03:23:57.607Z,1.80
2022-08-08T03:26:42.011Z,2.30
2022-08-08T03:29:27.012Z,2.17
2022-08-08T03:32:29.080Z,1.77
2022-08-08T03:34:57.914Z,1.93
2022-08-08T03:38:53.156Z,2.10
2022-08-08T03:40:30.612Z,1.87
2022-08-08T03:43:16.725Z,1.40
2022-08-08T03:46:06.326Z,2.10
2022-08-08T03:49:56.324Z,1.70
2022-08-08T03:51:51.085Z,1.80
2022-08-08T03:54:41.699Z,1.97
2022-08-08T03:58:09.493Z,1.93
2022-08-08T04:00:11.230Z,1.73
2022-08-08T04:02:51.882Z,1.70
2022-08-08T04:05:22.788Z,1.67
2022-08-08T04:08:00.762Z,2.00
2022-08-08T04:10:32.884Z,1.60
2022-08-08T04:13:08.216Z,1.97
2022-08-08T04:16:03.443Z,2.00
2022-08-08T04:18:41.895Z,1.90
2022-08-08T04:21:13.071Z,2.20
2022-08-08T04:24:05.335Z,2.20
2022-08-08T04:26:35.471Z,1.83
2022-08-08T04:29:16.406Z,1.67
2022-08-08T04:31:59.438Z,1.90
2022-08-08T04:34:32.257Z,2.27
2022-08-08T04:37:11.931Z,2.10
2022-08-08T04:40:03.506Z,2.10
2022-08-08T04:42:31.565Z,2.07
2022-08-08T04:45:05.299Z,1.70
2022-08-08T04:47:36.517Z,1.90
2022-08-08T04:50:14.312Z,2.00
2022-08-08T04:53:00.902Z,1.80
2022-08-08T04:55:47.062Z,1.87
2022-08-08T04:58:17.497Z,2.10
2022-08-08T05:00:48.352Z,2.23
2022-08-08T05:03:18.942Z,2.40
2022-08-08T05:06:13.309Z,2.40
2022-08-08T05:08:43.171Z,1.90
2022-08-08T05:11:24.635Z,2.33
2022-08-08T05:14:01.241Z,2.33
2022-08-08T05:16:51.871Z,2.20
2022-08-08T05:20:11.162Z,2.30
2022-08-08T05:22:10.959Z,2.20
2022-08-08T05:24:48.819Z,2.57
2022-08-08T05:27:18.933Z,2.03
2022-08-08T05:29:51.890Z,1.90
2022-08-08T05:32:24.391Z,1.93
2022-08-08T05:35:04.781Z,1.70
2022-08-08T05:37:51.976Z,2.77
2022-08-08T05:40:28.323Z,1.70
2022-08-08T05:43:38.432Z,1.83
2022-08-08T05:46:01.910Z,1.63
2022-08-08T05:48:34.674Z,2.10
2022-08-08T05:51:14.930Z,1.40
2022-08-08T05:54:24.920Z,1.53
2022-08-08T05:56:41.891Z,2.27
2022-08-08T05:59:59.868Z,2.00
2022-08-08T06:02:40.715Z,1.70
2022-08-08T06:05:34.550Z,2.70
2022-08-08T06:08:02.353Z,1.40
2022-08-08T06:10:34.581Z,1.70
2022-08-08T06:13:02.873Z,1.23
2022-08-08T06:15:50.879Z,1.63
2022-08-08T06:18:25.642Z,1.57
2022-08-08T06:21:03.447Z,1.67
2022-08-08T06:23:52.865Z,2.00
2022-08-08T06:26:44.695Z,1.40
2022-08-08T06:29:59.360Z,1.47
2022-08-08T06:32:17.142Z,1.63
2022-08-08T06:35:12.234Z,2.13
2022-08-08T06:37:55.787Z,1.73
2022-08-08T06:40:29.920Z,1.53
2022-08-08T06:43:10.028Z,1.90
2022-08-08T06:45:48.315Z,1.97
2022-08-08T06:48:17.224Z,1.40
2022-08-08T06:50:45.936Z,1.50
2022-08-08T06:53:20.139Z,1.50
2022-08-08T06:56:02.625Z,1.60
2022-08-08T06:58:34.056Z,1.73
2022-08-08T07:01:11.482Z,1.90
2022-08-08T07:04:37.357Z,1.53
2022-08-08T07:07:00.985Z,1.63
2022-08-08T07:09:59.521Z,1.60
2022-08-08T07:12:41.094Z,2.10
2022-08-08T07:15:32.546Z,1.30
2022-08-08T07:18:35.467Z,1.83
2022-08-08T07:20:58.580Z,1.63
2022-08-08T07:23:57.571Z,1.43
2022-08-08T07:26:35.565Z,1.80
2022-08-08T07:29:08.347Z,1.43
2022-08-08T07:31:41.397Z,2.10
2022-08-08T07:34:26.689Z,1.90
2022-08-08T07:37:11.896Z,2.50
2022-08-08T07:39:45.653Z,2.10
2022-08-08T07:42:25.946Z,1.70
2022-08-08T07:45:02.905Z,2.00
2022-08-08T07:47:39.287Z,1.67
2022-08-08T07:50:10.748Z,1.40
2022-08-08T07:52:47.262Z,1.97
2022-08-08T07:55:28.638Z,1.80
2022-08-08T07:58:08.379Z,1.60
2022-08-08T08:01:08.261Z,1.80
2022-08-08T08:04:13.789Z,2.27
2022-08-08T08:06:43.474Z,1.87
2022-08-08T08:09:26.560Z,2.17
2022-08-08T08:11:56.714Z,1.77
2022-08-08T08:14:55.654Z,1.80
2022-08-08T08:17:25.757Z,2.07
2022-08-08T08:20:05.235Z,1.77
2022-08-08T08:22:33.795Z,2.27
2022-08-08T08:25:07.440Z,2.20
2022-08-08T08:27:35.823Z,2.10
2022-08-08T08:30:03.924Z,1.70
2022-08-08T08:32:36.364Z,2.07
2022-08-08T08:35:13.226Z,2.50
2022-08-08T08:38:13.329Z,1.57
2022-08-08T08:40:33.074Z,1.93
2022-08-08T08:43:03.213Z,2.17
2022-08-08T08:45:32.189Z,1.70
2022-08-08T08:48:03.165Z,2.10
2022-08-08T08:50:41.057Z,2.00
2022-08-08T08:53:27.290Z,1.73
2022-08-08T08:56:13.844Z,1.93
2022-08-08T08:58:46.967Z,1.93
2022-08-08T09:01:23.871Z,1.63
2022-08-08T09:03:56.005Z,1.90
2022-08-08T09:06:33.553Z,1.43
2022-08-08T09:09:26.381Z,1.10
2022-08-08T09:12:07.614Z,1.40
2022-08-08T09:14:42.467Z,0.83
2022-08-08T09:17:18.249Z,0.97
2022-08-08T09:21:56.668Z,1.33
2022-08-08T09:22:36.665Z,1.27
2022-08-08T09:25:09.786Z,1.20
2022-08-08T09:27:55.725Z,1.90
2022-08-08T09:30:27.974Z,1.13
2022-08-08T09:33:12.678Z,1.00
2022-08-08T09:35:49.739Z,1.20
2022-08-08T09:38:33.823Z,0.97
2022-08-08T09:41:06.507Z,1.13
2022-08-08T09:44:06.782Z,1.30
2022-08-08T09:46:34.751Z,1.20
2022-08-08T09:49:17.964Z,1.20
2022-08-08T09:52:01.638Z,1.23
2022-08-08T09:54:44.847Z,1.43
2022-08-08T09:57:18.920Z,1.40
2022-08-08T10:00:14.644Z,1.57
2022-08-08T10:02:45.293Z,0.93
2022-08-08T10:05:22.771Z,1.30
2022-08-08T10:07:59.777Z,1.30
2022-08-08T10:10:33.220Z,1.40
2022-08-08T10:13:30.013Z,1.60
2022-08-08T10:16:03.427Z,1.53
2022-08-08T10:18:34.121Z,1.30
2022-08-08T10:21:23.203Z,1.20
2022-08-08T10:23:58.080Z,1.97
2022-08-08T10:26:57.190Z,1.70
2022-08-08T10:29:59.067Z,1.30
2022-08-08T10:32:32.742Z,1.70
2022-08-08T10:35:04.993Z,1.63
2022-08-08T10:37:39.934Z,1.60
2022-08-08T10:40:16.282Z,1.40
2022-08-08T10:42:45.479Z,1.90
2022-08-08T10:45:16.148Z,1.10
2022-08-08T10:47:55.292Z,1.40
2022-08-08T10:50:31.452Z,1.40
2022-08-08T10:53:07.836Z,1.47
2022-08-08T10:55:46.536Z,1.13
2022-08-08T10:58:15.547Z,1.77
2022-08-08T11:00:53.396Z,1.50
2022-08-08T11:04:00.550Z,1.50
2022-08-08T11:06:34.133Z,1.20
2022-08-08T11:09:15.058Z,1.37
2022-08-08T11:12:05.864Z,1.63
2022-08-08T11:14:35.014Z,1.40
2022-08-08T11:17:03.885Z,1.43
2022-08-08T11:19:33.193Z,1.23
2022-08-08T11:22:01.217Z,1.17
2022-08-08T11:24:33.457Z,1.27
2022-08-08T11:27:10.701Z,1.00
2022-08-08T11:30:04.332Z,1.37
2022-08-08T11:32:41.921Z,1.10
2022-08-08T11:35:27.756Z,1.10
2022-08-08T11:38:36.387Z,1.60
2022-08-08T11:40:52.478Z,1.13
2022-08-08T11:43:24.454Z,1.37
2022-08-08T11:46:09.738Z,1.03
2022-08-08T11:48:40.771Z,1.80
2022-08-08T11:51:38.750Z,1.10
2022-08-08T11:54:01.193Z,1.47
2022-08-08T11:56:42.172Z,1.10
2022-08-08T11:59:11.764Z,1.47
2022-08-08T12:01:39.310Z,1.13
2022-08-08T12:04:09.357Z,1.10
2022-08-08T12:06:39.363Z,1.00
2022-08-08T12:09:09.489Z,1.40
2022-08-08T12:11:45.847Z,1.30
2022-08-08T12:14:23.321Z,1.00
2022-08-08T12:16:54.738Z,1.13
2022-08-08T12:19:37.950Z,1.47
2022-08-08T12:22:13.207Z,1.20
2022-08-08T12:24:53.727Z,1.17
2022-08-08T12:27:21.548Z,1.30
2022-08-08T12:29:59.903Z,1.13
2022-08-08T12:32:31.361Z,0.80
2022-08-08T12:35:04.152Z,1.30
2022-08-08T12:37:47.866Z,1.33
2022-08-08T12:40:22.389Z,1.10
2022-08-08T12:42:52.432Z,1.10
2022-08-08T12:45:59.590Z,1.10
2022-08-08T12:48:36.606Z,1.10
2022-08-08T12:51:11.089Z,1.30
2022-08-08T12:53:57.480Z,0.70
2022-08-08T12:56:37.616Z,0.90
2022-08-08T13:00:03.621Z,1.07
2022-08-08T13:02:42.120Z,1.30
2022-08-08T13:05:27.056Z,1.13
2022-08-08T13:08:21.970Z,1.23
2022-08-08T13:10:58.248Z,1.20
2022-08-08T13:13:34.735Z,1.60
2022-08-08T13:16:19.792Z,1.00
2022-08-08T13:18:57.281Z,1.30
2022-08-08T13:21:48.539Z,1.20
2022-08-08T13:24:18.782Z,1.00
2022-08-08T13:27:10.781Z,1.10
2022-08-08T13:29:48.979Z,1.37
2022-08-08T13:32:20.853Z,1.30
2022-08-08T13:34:53.086Z,1.30
2022-08-08T13:37:28.310Z,0.87
2022-08-08T13:40:11.237Z,1.00
2022-08-08T13:42:45.634Z,1.20
2022-08-08T13:45:20.325Z,1.00
2022-08-08T13:48:01.850Z,0.90
2022-08-08T13:50:50.518Z,1.07
2022-08-08T13:53:31.413Z,1.10
2022-08-08T13:56:05.209Z,0.97
2022-08-08T13:58:33.195Z,1.07
2022-08-08T14:01:13.706Z,1.30
2022-08-08T14:03:55.483Z,1.10
2022-08-08T14:06:33.892Z,0.90
2022-08-08T14:09:24.550Z,1.20
2022-08-08T14:11:49.818Z,1.10
2022-08-08T14:14:20.872Z,1.03
2022-08-08T14:16:53.830Z,1.33
2022-08-08T14:19:57.544Z,0.90
2022-08-08T14:22:27.474Z,1.43
2022-08-08T14:25:02.383Z,1.20
2022-08-08T14:27:40.408Z,1.37
2022-08-08T14:30:18.462Z,1.13
2022-08-08T14:32:52.976Z,1.20
2022-08-08T14:35:24.611Z,1.40
2022-08-08T14:38:09.458Z,1.00
2022-08-08T14:40:41.675Z,1.33
2022-08-08T14:43:22.169Z,1.20
2022-08-08T14:46:09.453Z,1.20
2022-08-08T14:48:52.568Z,0.80
2022-08-08T14:51:52.574Z,0.90
2022-08-08T14:54:28.786Z,1.50
2022-08-08T14:56:58.100Z,1.00
2022-08-08T14:59:44.665Z,1.40
2022-08-08T15:02:15.410Z,0.90
2022-08-08T15:04:43.213Z,1.10
2022-08-08T15:07:24.219Z,1.10
2022-08-08T15:10:00.441Z,1.00
2022-08-08T15:12:28.744Z,0.90
2022-08-08T15:14:56.339Z,1.13
2022-08-08T15:17:24.068Z,1.23
2022-08-08T15:19:52.101Z,1.03
2022-08-08T15:22:23.735Z,1.00
2022-08-08T15:24:51.897Z,0.90
2022-08-08T15:27:58.300Z,0.93
2022-08-08T15:30:08.218Z,1.00
2022-08-08T15:32:40.600Z,1.10
2022-08-08T15:35:11.234Z,1.23
2022-08-08T15:37:39.117Z,0.70
2022-08-08T15:40:11.366Z,0.97
2022-08-08T15:42:47.592Z,1.23
2022-08-08T15:45:17.046Z,1.00
2022-08-08T15:48:04.161Z,1.00
2022-08-08T15:50:58.734Z,1.00
2022-08-08T15:53:28.179Z,0.87
2022-08-08T15:56:12.661Z,0.90
2022-08-08T15:58:48.275Z,1.13
2022-08-08T16:01:16.724Z,0.90
2022-08-08T16:03:47.983Z,0.80
2022-08-08T16:06:28.563Z,1.20
2022-08-08T16:13:02.517Z,1.20
2022-08-08T16:13:05.030Z,0.90
2022-08-08T16:14:34.906Z,1.40
2022-08-08T16:17:05.648Z,0.97
2022-08-08T16:19:56.914Z,0.70
2022-08-08T16:22:29.922Z,0.90
2022-08-08T16:24:58.891Z,1.00
2022-08-08T16:27:35.222Z,0.83
2022-08-08T16:30:10.540Z,1.00
2022-08-08T16:32:41.839Z,0.90
2022-08-08T16:35:09.924Z,0.90
2022-08-08T16:37:40.488Z,0.80
2022-08-08T16:40:14.211Z,1.10
2022-08-08T16:42:51.856Z,0.93
2022-08-08T16:46:36.475Z,1.00
2022-08-08T16:48:09.379Z,1.10
2022-08-08T16:50:40.649Z,0.93
2022-08-08T16:55:20.748Z,0.90
2022-08-08T16:55:57.702Z,0.80
2022-08-08T16:58:27.022Z,1.00
2022-08-08T17:01:00.354Z,1.20
2022-08-08T17:03:58.670Z,1.20
2022-08-08T17:06:36.190Z,1.03
2022-08-08T17:09:03.432Z,1.20
2022-08-08T17:11:39.282Z,0.80
2022-08-08T17:14:18.903Z,1.00
2022-08-08T17:16:57.755Z,1.20
2022-08-08T17:19:27.435Z,1.47
2022-08-08T17:21:56.890Z,0.90
2022-08-08T17:24:27.669Z,0.80
2022-08-08T17:26:58.086Z,1.00
2022-08-08T17:29:27.085Z,1.20
2022-08-08T17:31:54.983Z,1.27
2022-08-08T17:34:49.709Z,1.10
2022-08-08T17:37:13.720Z,1.20
2022-08-08T17:40:03.019Z,0.70
2022-08-08T17:42:29.139Z,0.90
2022-08-08T17:44:58.335Z,1.10
2022-08-08T17:47:28.092Z,1.23
2022-08-08T17:50:06.240Z,0.90
2022-08-08T17:52:35.434Z,1.20
2022-08-08T17:56:03.431Z,0.97
2022-08-08T17:57:54.204Z,1.20
2022-08-08T18:00:30.473Z,0.90
2022-08-08T18:03:08.406Z,1.00
2022-08-08T18:05:49.732Z,1.00
2022-08-08T18:08:25.227Z,1.10
2022-08-08T18:11:11.460Z,0.80
2022-08-08T18:13:41.876Z,0.90
2022-08-08T18:16:11.060Z,1.07
2022-08-08T18:18:42.701Z,1.00
2022-08-08T18:21:34.840Z,1.43
2022-08-08T18:24:01.050Z,1.10
2022-08-08T18:26:29.681Z,1.43
2022-08-08T18:28:57.610Z,1.20
2022-08-08T18:31:27.831Z,0.90
2022-08-08T18:34:12.305Z,1.00
2022-08-08T18:36:44.558Z,1.07
2022-08-08T18:39:16.413Z,0.97
2022-08-08T18:41:59.744Z,1.03
2022-08-08T18:44:32.946Z,1.30
2022-08-08T18:47:02.466Z,1.20
2022-08-08T18:49:32.367Z,1.23
2022-08-08T18:52:18.591Z,0.97
2022-08-08T18:54:59.802Z,1.40
2022-08-08T18:57:31.533Z,1.17
2022-08-08T19:00:06.707Z,1.43
2022-08-08T19:02:38.254Z,1.30
2022-08-08T19:05:16.735Z,1.20
2022-08-08T19:07:52.176Z,1.03
2022-08-08T19:10:20.551Z,1.20
2022-08-08T19:12:53.117Z,1.03
2022-08-08T19:15:23.858Z,1.17
2022-08-08T19:18:31.757Z,1.40
2022-08-08T19:20:43.049Z,0.90
2022-08-08T19:23:13.947Z,1.00
2022-08-08T19:26:02.208Z,1.00
2022-08-08T19:28:31.511Z,1.20
2022-08-08T19:31:03.937Z,1.10
2022-08-08T19:33:52.154Z,0.97
2022-08-08T19:36:25.293Z,1.20
2022-08-08T19:38:57.072Z,1.13
2022-08-08T19:41:33.571Z,1.10
2022-08-08T19:44:03.581Z,0.93
2022-08-08T19:46:40.542Z,1.20
2022-08-08T19:49:09.757Z,1.30
2022-08-08T19:51:39.587Z,2.30
2022-08-08T19:54:11.424Z,1.77
2022-08-08T19:56:41.378Z,1.37
2022-08-08T19:59:10.345Z,1.23
2022-08-08T20:02:02.267Z,1.23
2022-08-08T20:04:29.401Z,1.20
2022-08-08T20:06:57.792Z,1.30
2022-08-08T20:09:32.547Z,1.40
2022-08-08T20:12:09.334Z,1.03
2022-08-08T20:14:42.292Z,1.30
2022-08-08T20:17:27.790Z,1.17
2022-08-08T20:20:08.857Z,1.30
2022-08-08T20:22:40.361Z,1.80
2022-08-08T20:25:14.378Z,1.77
2022-08-08T20:27:49.443Z,1.97
2022-08-08T20:30:53.262Z,1.40
2022-08-08T20:33:08.055Z,1.50
2022-08-08T20:35:56.977Z,1.40
2022-08-08T20:38:31.927Z,1.63
2022-08-08T20:41:12.224Z,1.50
2022-08-08T20:43:49.275Z,1.90
2022-08-08T20:46:21.042Z,1.90
2022-08-08T20:48:55.619Z,1.50
2022-08-08T20:51:27.415Z,1.90
2022-08-08T20:54:03.591Z,1.60
2022-08-08T20:57:04.490Z,2.00
2022-08-08T20:59:25.342Z,1.53
2022-08-08T21:02:07.160Z,1.73
2022-08-08T21:04:36.800Z,1.83
2022-08-08T21:07:08.170Z,1.57
2022-08-08T21:09:48.537Z,1.70
2022-08-08T21:12:33.085Z,1.77
2022-08-08T21:15:09.479Z,1.60
2022-08-08T21:17:37.811Z,1.90
2022-08-08T21:20:06.200Z,1.83
2022-08-08T21:22:33.961Z,2.77
2022-08-08T21:25:02.111Z,1.63
2022-08-08T21:27:38.860Z,1.90
2022-08-08T21:30:21.707Z,1.70
2022-08-08T21:32:51.572Z,1.43
2022-08-08T21:36:17.422Z,1.80
2022-08-08T21:38:16.491Z,1.30
2022-08-08T21:40:55.017Z,1.90
2022-08-08T21:43:34.324Z,2.00
2022-08-08T21:48:05.020Z,1.63
2022-08-08T21:48:53.258Z,1.50
2022-08-08T21:54:31.739Z,1.60
2022-08-08T21:54:34.460Z,1.63
2022-08-08T21:56:59.203Z,1.50
2022-08-08T21:59:44.176Z,2.00
2022-08-08T22:02:15.983Z,1.30
2022-08-08T22:04:43.622Z,1.33
2022-08-08T22:07:11.384Z,1.30
2022-08-08T22:09:43.799Z,2.00
2022-08-08T22:12:15.077Z,1.50
2022-08-08T22:14:47.434Z,1.60
2022-08-08T22:17:18.391Z,1.77
2022-08-08T22:20:10.442Z,1.60
2022-08-08T22:22:38.043Z,1.43
2022-08-08T22:25:19.804Z,2.20
2022-08-08T22:28:03.959Z,3.83
2022-08-08T22:30:33.579Z,2.10
2022-08-08T22:33:01.892Z,2.00
2022-08-08T22:36:04.098Z,1.80
2022-08-08T22:38:17.501Z,1.90
2022-08-08T22:40:48.365Z,1.87
2022-08-08T22:43:17.315Z,1.83
2022-08-08T22:45:46.426Z,2.87
2022-08-08T22:48:14.598Z,1.60
2022-08-08T22:50:49.002Z,2.60
2022-08-08T22:54:29.354Z,1.80
2022-08-08T22:56:04.484Z,2.47
2022-08-08T22:58:33.793Z,2.07
2022-08-08T23:02:01.888Z,1.80
2022-08-08T23:03:56.575Z,2.00
2022-08-08T23:06:25.406Z,1.50
2022-08-08T23:08:58.559Z,2.10
2022-08-08T23:11:31.093Z,2.60
2022-08-08T23:14:20.841Z,1.53
2022-08-08T23:16:57.579Z,1.40
2022-08-08T23:19:30.779Z,2.00
2022-08-08T23:22:04.522Z,2.07
2022-08-08T23:24:36.778Z,1.47
2022-08-08T23:27:09.815Z,2.30
2022-08-08T23:29:38.152Z,1.57
2022-08-08T23:32:05.962Z,1.37
2022-08-08T23:34:38.283Z,2.50
2022-08-08T23:37:05.948Z,1.60
2022-08-08T23:39:42.114Z,1.40
2022-08-08T23:42:17.016Z,2.00
2022-08-08T23:44:45.192Z,1.43
2022-08-08T23:49:03.890Z,1.87
2022-08-08T23:50:03.328Z,1.60
2022-08-08T23:52:33.571Z,2.10
2022-08-08T23:55:14.682Z,1.67
2022-08-08T23:57:53.136Z,1.33
